Time;durP1;ratioP1;P1;durP2;ratioP2;P2;SDS_P1;SDS_P2;PMS_P1;PMS_P2;Temp;Humidity;BMP_temperature;BMP_pressure;BME280_temperature;BME280_humidity;BME280_pressure;Samples;Min_cycle;Max_cycle;Signal;HPM_P1;HPM_P2
2023/10/07 00:00:47;;;;;;;12.57;4.78;;;10.60;99.90;;;;;;5091774;28;20188;-66
2023/10/07 00:03:05;;;;;;;10.10;4.28;;;10.60;99.90;;;;;;5091564;28;20036;-66
2023/10/07 00:05:35;;;;;;;9.32;4.60;;;10.60;99.90;;;;;;5090683;28;20028;-66
2023/10/07 00:08:03;;;;;;;11.73;4.47;;;10.60;99.90;;;;;;5092887;28;20028;-66
2023/10/07 00:10:37;;;;;;;13.73;5.18;;;10.60;99.90;;;;;;5090766;28;20028;-66
2023/10/07 00:13:05;;;;;;;9.32;4.68;;;10.60;99.90;;;;;;5093604;28;20016;-63
2023/10/07 00:15:31;;;;;;;12.90;4.65;;;10.60;99.90;;;;;;5091418;28;20023;-66
2023/10/07 00:18:00;;;;;;;13.63;4.45;;;10.60;99.90;;;;;;5091632;28;20023;-66
2023/10/07 00:20:27;;;;;;;9.90;4.03;;;10.60;99.90;;;;;;5093370;28;20023;-65
2023/10/07 00:22:57;;;;;;;12.00;4.18;;;10.60;99.90;;;;;;5089221;28;20035;-65
2023/10/07 00:25:23;;;;;;;12.63;3.88;;;10.60;99.90;;;;;;5086084;28;20024;-65
2023/10/07 00:27:48;;;;;;;9.95;3.85;;;10.60;99.90;;;;;;5090060;28;20035;-67
2023/10/07 00:30:22;;;;;;;17.75;4.85;;;10.60;99.90;;;;;;5089812;28;20108;-66
2023/10/07 00:32:50;;;;;;;14.98;5.10;;;10.70;99.90;;;;;;5088897;28;20027;-66
2023/10/07 00:35:20;;;;;;;11.60;4.15;;;10.70;99.90;;;;;;5085019;28;20020;-66
2023/10/07 00:37:46;;;;;;;8.88;4.03;;;10.70;99.90;;;;;;5084844;28;20024;-66
2023/10/07 00:40:24;;;;;;;10.95;4.30;;;10.60;99.90;;;;;;5091127;28;20039;-67
2023/10/07 00:42:53;;;;;;;10.77;4.47;;;10.60;99.90;;;;;;5093326;28;20028;-66
2023/10/07 00:45:20;;;;;;;14.23;4.32;;;10.60;99.90;;;;;;5052187;28;20036;-66
2023/10/07 00:47:49;;;;;;;11.65;4.35;;;10.60;99.90;;;;;;5081505;28;20050;-67
2023/10/07 00:50:16;;;;;;;10.38;4.35;;;10.60;99.90;;;;;;5090374;28;20020;-66
2023/10/07 00:55:24;;;;;;;10.15;4.30;;;10.50;99.90;;;;;;5078531;28;20401;-66
2023/10/07 00:58:03;;;;;;;10.35;4.35;;;10.50;99.90;;;;;;5085575;28;20028;-67
2023/10/07 01:03:13;;;;;;;10.30;3.88;;;10.50;99.90;;;;;;5089986;28;20035;-60
2023/10/07 01:05:44;;;;;;;8.63;3.85;;;10.40;99.90;;;;;;5092937;28;20039;-65
2023/10/07 01:08:09;;;;;;;9.48;4.30;;;10.40;99.90;;;;;;5097483;28;20035;-64
2023/10/07 01:10:38;;;;;;;12.25;3.67;;;10.50;99.90;;;;;;5087017;28;20028;-65
2023/10/07 01:13:24;;;;;;;9.13;4.07;;;10.40;99.90;;;;;;5091575;28;20016;-67
2023/10/07 01:15:51;;;;;;;12.82;4.47;;;10.40;99.90;;;;;;5090103;28;20035;-66
2023/10/07 01:18:19;;;;;;;12.20;4.30;;;10.30;99.90;;;;;;5090965;28;20525;-67
2023/10/07 01:23:18;;;;;;;12.52;4.57;;;10.30;99.90;;;;;;5094977;28;20103;-64
2023/10/07 01:25:44;;;;;;;6.82;4.05;;;10.30;99.90;;;;;;5095096;28;20020;-66
2023/10/07 01:28:14;;;;;;;9.95;3.90;;;10.30;99.90;;;;;;5090127;28;20024;-66
2023/10/07 01:30:47;;;;;;;11.68;4.75;;;10.30;99.90;;;;;;5085110;28;20028;-65
2023/10/07 01:36:06;;;;;;;10.27;4.75;;;10.30;99.90;;;;;;5089046;28;20509;-65
2023/10/07 01:38:31;;;;;;;10.38;4.22;;;10.40;99.90;;;;;;5086625;28;20078;-63
2023/10/07 01:41:04;;;;;;;11.77;4.90;;;10.40;99.90;;;;;;5088628;28;20492;-63
2023/10/07 01:43:30;;;;;;;13.10;4.57;;;10.50;99.90;;;;;;5088541;28;20031;-65
2023/10/07 01:45:56;;;;;;;14.20;4.70;;;10.60;99.90;;;;;;5078680;28;20032;-67
2023/10/07 01:48:21;;;;;;;11.27;4.15;;;10.60;99.90;;;;;;5085106;28;20024;-65
2023/10/07 01:50:47;;;;;;;15.05;5.32;;;10.70;99.90;;;;;;5081393;28;20040;-66
2023/10/07 01:53:14;;;;;;;9.27;4.45;;;10.80;99.90;;;;;;5083382;28;20511;-67
2023/10/07 01:55:45;;;;;;;9.35;4.43;;;10.90;99.90;;;;;;5093538;27;20031;-65
2023/10/07 01:58:15;;;;;;;13.30;4.70;;;11.00;99.90;;;;;;5083502;28;20032;-65
2023/10/07 02:03:13;;;;;;;12.93;4.20;;;10.80;99.90;;;;;;5083904;28;20036;-66
2023/10/07 02:05:46;;;;;;;13.18;4.97;;;10.70;99.90;;;;;;5086463;28;20062;-65
2023/10/07 02:08:16;;;;;;;10.55;4.35;;;10.60;99.90;;;;;;5088314;28;20032;-65
2023/10/07 02:10:45;;;;;;;14.98;5.18;;;10.50;99.90;;;;;;5078282;28;20032;-65
2023/10/07 02:13:14;;;;;;;7.43;3.65;;;10.40;99.90;;;;;;5086479;28;20103;-65
2023/10/07 02:15:43;;;;;;;14.80;4.95;;;10.40;99.90;;;;;;5085850;28;20044;-63
2023/10/07 02:18:16;;;;;;;9.95;5.13;;;10.40;99.90;;;;;;5088729;28;20020;-66
2023/10/07 02:20:49;;;;;;;11.13;4.32;;;10.40;99.90;;;;;;5082212;28;20562;-66
2023/10/07 02:23:34;;;;;;;14.07;5.10;;;10.40;99.90;;;;;;5083555;28;20089;-62
2023/10/07 02:26:00;;;;;;;13.52;4.85;;;10.50;99.90;;;;;;5084353;28;20024;-65
2023/10/07 02:28:29;;;;;;;13.10;4.78;;;10.70;99.90;;;;;;5083464;28;20081;-66
2023/10/07 02:31:01;;;;;;;13.90;5.68;;;10.80;99.90;;;;;;5075238;28;20081;-66
2023/10/07 02:33:41;;;;;;;14.73;5.70;;;10.90;99.90;;;;;;5086203;28;20485;-64
2023/10/07 02:36:12;;;;;;;13.55;5.40;;;10.90;99.90;;;;;;5083457;28;20115;-65
2023/10/07 02:38:41;;;;;;;16.00;4.32;;;11.00;99.90;;;;;;5082651;28;20111;-65
2023/10/07 02:41:16;;;;;;;12.68;5.13;;;11.00;99.90;;;;;;5087652;28;20396;-64
2023/10/07 02:43:43;;;;;;;13.98;5.07;;;11.00;99.90;;;;;;5092502;28;20031;-64
2023/10/07 02:46:22;;;;;;;12.60;4.80;;;10.90;99.90;;;;;;5087933;28;20028;-64
2023/10/07 02:48:48;;;;;;;19.35;4.82;;;10.90;99.90;;;;;;5092778;28;20027;-65
2023/10/07 02:51:14;;;;;;;13.55;4.50;;;10.90;99.90;;;;;;5090565;28;20473;-66
2023/10/07 02:53:39;;;;;;;10.27;4.78;;;10.80;99.90;;;;;;5082651;28;20104;-66
2023/10/07 02:56:17;;;;;;;8.88;4.95;;;10.80;99.90;;;;;;5078825;28;20036;-65
2023/10/07 02:58:59;;;;;;;13.68;5.70;;;10.90;99.90;;;;;;5094151;28;20036;-65
2023/10/07 03:01:26;;;;;;;16.02;5.43;;;11.00;99.90;;;;;;5090192;28;20114;-63
2023/10/07 03:03:53;;;;;;;9.23;5.25;;;11.20;99.90;;;;;;5092760;28;20024;-66
2023/10/07 03:06:19;;;;;;;15.52;5.38;;;11.20;99.90;;;;;;5096451;28;20113;-65
2023/10/07 03:11:12;;;;;;;14.75;5.55;;;11.40;99.90;;;;;;5092930;28;20115;-65
2023/10/07 03:13:49;;;;;;;13.00;5.47;;;11.50;99.90;;;;;;5093851;28;20092;-65
2023/10/07 03:18:55;;;;;;;12.02;4.32;;;11.50;99.90;;;;;;5091613;28;20508;-65
2023/10/07 03:21:21;;;;;;;13.30;4.25;;;11.50;99.90;;;;;;5092034;28;20032;-66
2023/10/07 03:23:47;;;;;;;9.60;3.97;;;11.50;99.90;;;;;;5094017;28;20023;-67
2023/10/07 03:26:18;;;;;;;13.00;4.55;;;11.40;99.90;;;;;;5096259;28;20031;-65
2023/10/07 03:29:04;;;;;;;10.45;4.03;;;11.50;99.90;;;;;;5100274;28;20106;-66
2023/10/07 03:34:11;;;;;;;7.03;3.90;;;11.50;99.90;;;;;;5097204;28;20503;-66
2023/10/07 03:36:58;;;;;;;9.80;4.55;;;11.50;99.90;;;;;;5092417;28;20048;-69
2023/10/07 03:39:37;;;;;;;9.73;5.25;;;11.50;99.90;;;;;;5096834;28;20393;-65
2023/10/07 03:42:03;;;;;;;10.55;3.85;;;11.60;99.90;;;;;;5095771;28;20027;-66
2023/10/07 03:44:31;;;;;;;11.27;4.72;;;11.60;99.90;;;;;;5095852;28;20032;-66
2023/10/07 03:46:57;;;;;;;6.88;4.30;;;11.70;99.90;;;;;;5092529;28;20037;-62
2023/10/07 03:49:27;;;;;;;8.43;4.18;;;11.60;99.90;;;;;;5089284;28;20012;-65
2023/10/07 03:52:12;;;;;;;8.98;3.95;;;11.70;99.90;;;;;;5086086;28;20116;-66
2023/10/07 03:54:40;;;;;;;11.70;4.22;;;11.80;99.90;;;;;;5086426;28;20061;-66
2023/10/07 03:57:07;;;;;;;9.07;4.10;;;11.80;99.90;;;;;;5091064;28;20129;-63
2023/10/07 03:59:34;;;;;;;8.25;4.30;;;11.80;99.90;;;;;;5094688;28;21204;-67
2023/10/07 04:02:00;;;;;;;8.48;4.40;;;11.80;99.90;;;;;;5085704;28;20393;-67
2023/10/07 04:04:27;;;;;;;9.60;4.35;;;11.80;99.90;;;;;;5088160;28;20050;-66
2023/10/07 04:06:53;;;;;;;8.07;4.50;;;11.80;99.90;;;;;;5086508;28;20043;-66
2023/10/07 04:09:27;;;;;;;11.88;4.65;;;11.80;99.90;;;;;;5089800;28;20587;-67
2023/10/07 04:11:52;;;;;;;12.23;4.22;;;11.80;99.90;;;;;;5087623;28;20030;-64
2023/10/07 04:14:35;;;;;;;6.20;3.97;;;11.80;99.90;;;;;;5074162;28;20132;-65
2023/10/07 04:17:11;;;;;;;10.63;4.40;;;11.80;99.90;;;;;;5092742;28;20099;-65
2023/10/07 04:19:52;;;;;;;12.40;4.63;;;11.80;99.90;;;;;;5086688;28;20020;-66
2023/10/07 04:22:18;;;;;;;10.02;3.63;;;11.80;99.90;;;;;;5091588;28;20031;-67
2023/10/07 04:24:46;;;;;;;15.25;4.85;;;11.80;99.90;;;;;;5083994;28;20032;-65
2023/10/07 04:27:18;;;;;;;6.50;3.88;;;11.80;99.90;;;;;;5088875;28;20024;-67
2023/10/07 04:29:46;;;;;;;8.88;4.60;;;11.80;99.90;;;;;;5088227;28;20386;-66
2023/10/07 04:32:20;;;;;;;11.25;4.88;;;11.80;99.90;;;;;;5091679;28;20775;-66
2023/10/07 04:37:47;;;;;;;10.93;3.97;;;11.80;99.90;;;;;;5089224;28;20047;-66
2023/10/07 04:43:25;;;;;;;13.15;4.78;;;11.80;99.90;;;;;;5089221;28;20047;-66
2023/10/07 04:45:53;;;;;;;8.95;3.92;;;11.80;99.90;;;;;;5088482;28;20501;-66
2023/10/07 04:48:31;;;;;;;8.93;3.90;;;11.80;99.90;;;;;;5091620;28;20215;-66
2023/10/07 04:51:46;;;;;;;10.55;3.88;;;11.80;99.90;;;;;;5088111;28;20032;-62
2023/10/07 04:53:57;;;;;;;8.73;3.90;;;11.80;99.90;;;;;;5080813;28;20640;-65
2023/10/07 04:56:25;;;;;;;10.25;3.90;;;11.80;99.90;;;;;;5091969;28;22187;-66
2023/10/07 04:58:52;;;;;;;8.07;4.45;;;11.80;99.90;;;;;;5090424;28;20524;-66
2023/10/07 05:01:33;;;;;;;6.70;3.50;;;11.90;99.90;;;;;;5084776;28;20111;-66
2023/10/07 05:04:04;;;;;;;9.05;4.35;;;11.90;99.90;;;;;;5088143;28;20024;-65
2023/10/07 05:06:30;;;;;;;11.25;4.05;;;11.90;99.90;;;;;;5088141;28;20101;-67
2023/10/07 05:08:56;;;;;;;9.40;4.78;;;11.90;99.90;;;;;;5086900;28;20101;-62
2023/10/07 05:11:26;;;;;;;10.60;3.92;;;11.90;99.90;;;;;;5081215;28;20036;-65
2023/10/07 05:13:52;;;;;;;6.35;3.20;;;12.00;99.90;;;;;;5096140;28;20026;-65
2023/10/07 05:16:19;;;;;;;6.32;3.65;;;12.00;99.90;;;;;;5092793;28;20019;-65
2023/10/07 05:18:45;;;;;;;7.93;4.05;;;12.00;99.90;;;;;;5089741;28;20080;-65
2023/10/07 05:21:11;;;;;;;10.38;4.47;;;12.00;99.90;;;;;;5090960;28;20059;-65
2023/10/07 05:23:39;;;;;;;14.35;4.97;;;12.10;99.90;;;;;;5091222;28;20055;-66
2023/10/07 05:26:09;;;;;;;6.38;3.67;;;12.10;99.90;;;;;;5094104;28;20052;-66
2023/10/07 05:28:35;;;;;;;12.50;5.35;;;12.10;99.90;;;;;;5095478;28;20106;-67
2023/10/07 05:31:05;;;;;;;9.05;4.32;;;12.10;99.90;;;;;;5094397;28;20023;-67
2023/10/07 05:33:35;;;;;;;10.90;4.22;;;12.10;99.90;;;;;;5102479;28;20016;-66
2023/10/07 05:36:11;;;;;;;7.90;4.25;;;12.00;99.90;;;;;;5087092;28;20020;-65
2023/10/07 05:38:37;;;;;;;11.85;5.18;;;12.10;99.90;;;;;;5094482;28;20015;-66
2023/10/07 05:41:06;;;;;;;13.80;4.75;;;12.10;99.90;;;;;;5069443;28;20516;-67
2023/10/07 05:43:32;;;;;;;8.23;4.40;;;12.10;99.90;;;;;;5090506;28;20470;-65
2023/10/07 05:45:58;;;;;;;9.13;3.92;;;12.10;99.90;;;;;;5095721;28;20074;-66
2023/10/07 05:48:25;;;;;;;9.75;3.47;;;12.10;99.90;;;;;;5092252;28;20032;-66
2023/10/07 05:50:54;;;;;;;8.10;3.88;;;12.20;99.90;;;;;;5087261;28;20115;-65
2023/10/07 05:53:20;;;;;;;11.68;4.57;;;12.20;99.90;;;;;;5072108;28;20031;-65
2023/10/07 05:55:47;;;;;;;11.80;4.20;;;12.20;99.90;;;;;;5086017;28;20035;-67
2023/10/07 05:58:14;;;;;;;11.48;4.50;;;12.20;99.90;;;;;;5084715;28;20024;-67
2023/10/07 06:00:40;;;;;;;9.82;4.20;;;12.20;99.90;;;;;;5094178;28;20034;-65
2023/10/07 06:03:06;;;;;;;13.13;3.40;;;12.20;99.90;;;;;;5093425;28;20031;-65
2023/10/07 06:05:33;;;;;;;10.20;4.03;;;12.20;99.90;;;;;;5093632;28;20043;-65
2023/10/07 06:07:59;;;;;;;7.20;3.65;;;12.20;99.90;;;;;;5085373;28;20019;-66
2023/10/07 06:10:25;;;;;;;8.55;4.32;;;12.30;99.90;;;;;;5083776;28;20401;-66
2023/10/07 06:12:53;;;;;;;7.63;3.80;;;12.30;99.90;;;;;;5089936;28;20396;-67
2023/10/07 06:15:20;;;;;;;10.50;4.13;;;12.30;99.90;;;;;;5095985;28;20027;-66
2023/10/07 06:17:46;;;;;;;11.15;4.07;;;12.30;99.90;;;;;;5098891;28;20063;-67
2023/10/07 06:20:14;;;;;;;12.10;3.97;;;12.40;99.90;;;;;;5095612;28;20135;-62
2023/10/07 06:22:48;;;;;;;11.15;3.92;;;12.40;99.90;;;;;;5091431;28;20122;-66
2023/10/07 06:25:15;;;;;;;9.00;4.00;;;12.50;99.90;;;;;;5094570;28;20039;-65
2023/10/07 06:27:45;;;;;;;9.73;4.50;;;12.60;99.90;;;;;;5091976;28;20032;-67
2023/10/07 06:30:21;;;;;;;10.25;4.78;;;12.70;99.90;;;;;;5088474;28;20028;-65
2023/10/07 06:32:55;;;;;;;10.48;3.65;;;12.70;99.90;;;;;;5091640;28;20020;-66
2023/10/07 06:35:25;;;;;;;9.55;4.10;;;12.80;99.90;;;;;;5098055;28;20020;-66
2023/10/07 06:37:52;;;;;;;5.70;3.45;;;12.90;99.90;;;;;;5097270;28;20020;-66
2023/10/07 06:40:43;;;;;;;9.60;3.38;;;12.90;99.90;;;;;;5093854;28;20028;-67
2023/10/07 06:43:08;;;;;;;12.57;4.25;;;13.00;99.90;;;;;;5091056;28;20046;-66
2023/10/07 06:45:38;;;;;;;10.05;3.50;;;13.10;99.90;;;;;;5092101;28;20111;-67
2023/10/07 06:48:08;;;;;;;8.30;3.03;;;13.20;99.90;;;;;;5096251;28;20020;-67
2023/10/07 06:50:34;;;;;;;7.55;3.95;;;13.40;99.90;;;;;;5091471;28;20036;-66
2023/10/07 06:53:00;;;;;;;8.68;3.45;;;13.60;99.90;;;;;;5082865;28;20036;-64
2023/10/07 06:55:28;;;;;;;8.88;3.92;;;13.70;99.90;;;;;;5092689;28;20020;-66
2023/10/07 06:57:56;;;;;;;7.20;4.35;;;13.80;99.90;;;;;;5076944;28;20517;-66
2023/10/07 07:00:23;;;;;;;8.60;3.40;;;13.90;99.90;;;;;;5096659;28;20024;-67
2023/10/07 07:02:54;;;;;;;6.55;3.50;;;13.90;99.90;;;;;;5090833;28;20031;-66
2023/10/07 07:05:23;;;;;;;8.90;3.78;;;13.90;99.90;;;;;;5092419;28;20019;-66
2023/10/07 07:07:52;;;;;;;9.55;4.00;;;13.90;99.90;;;;;;5094736;28;20028;-66
2023/10/07 07:10:27;;;;;;;8.80;3.65;;;13.90;99.90;;;;;;5096691;28;20028;-66
2023/10/07 07:12:59;;;;;;;15.95;4.63;;;13.90;99.90;;;;;;5095764;28;20445;-65
2023/10/07 07:15:28;;;;;;;9.32;3.22;;;13.90;99.90;;;;;;5088614;28;20402;-66
2023/10/07 07:18:07;;;;;;;11.20;4.07;;;14.00;99.90;;;;;;5093228;28;20065;-66
2023/10/07 07:20:48;;;;;;;9.70;4.60;;;14.00;99.90;;;;;;5090862;28;20118;-66
2023/10/07 07:23:16;;;;;;;5.47;3.17;;;14.10;99.90;;;;;;5093414;28;20107;-65
2023/10/07 07:25:43;;;;;;;6.68;3.60;;;14.10;99.90;;;;;;5093662;28;20038;-67
2023/10/07 07:28:13;;;;;;;7.65;3.53;;;14.20;99.90;;;;;;5093774;28;20036;-67
2023/10/07 07:30:39;;;;;;;8.77;3.33;;;14.20;99.90;;;;;;5094373;28;20473;-66
2023/10/07 07:33:07;;;;;;;8.02;3.83;;;14.30;99.90;;;;;;5090270;28;20034;-68
2023/10/07 07:35:40;;;;;;;7.85;3.50;;;14.50;99.90;;;;;;5100067;28;20019;-66
2023/10/07 07:38:31;;;;;;;7.40;3.22;;;14.60;99.90;;;;;;5092796;28;20024;-66
2023/10/07 07:41:06;;;;;;;7.75;3.55;;;14.70;99.90;;;;;;5087567;28;20020;-64
2023/10/07 07:43:36;;;;;;;9.45;4.00;;;14.80;99.90;;;;;;5097373;28;21075;-66
2023/10/07 07:46:51;;;;;;;7.60;3.42;;;14.80;99.90;;;;;;5088275;28;20028;-67
2023/10/07 07:49:06;;;;;;;9.63;2.92;;;14.80;99.90;;;;;;5091348;28;20043;-64
2023/10/07 07:51:43;;;;;;;11.18;3.60;;;15.00;99.90;;;;;;5099112;28;20032;-69
2023/10/07 07:54:09;;;;;;;8.77;2.97;;;15.20;99.90;;;;;;5086725;28;20496;-67
2023/10/07 07:56:36;;;;;;;5.90;2.63;;;15.50;99.90;;;;;;5093727;28;20031;-68
2023/10/07 07:59:13;;;;;;;7.60;3.00;;;15.70;99.90;;;;;;5088499;27;20527;-67
2023/10/07 08:01:47;;;;;;;12.38;3.58;;;15.90;99.90;;;;;;5092263;28;20063;-67
2023/10/07 08:04:34;;;;;;;7.20;2.72;;;16.00;99.90;;;;;;5088625;28;20043;-66
2023/10/07 08:07:05;;;;;;;8.45;3.50;;;16.20;99.90;;;;;;5088346;28;20031;-64
2023/10/07 08:09:36;;;;;;;5.45;3.03;;;16.20;99.90;;;;;;5091766;28;20039;-65
2023/10/07 08:12:03;;;;;;;7.50;3.38;;;16.40;99.90;;;;;;5089595;28;20020;-67
2023/10/07 08:14:29;;;;;;;8.35;3.05;;;16.50;99.90;;;;;;5092821;28;20028;-66
2023/10/07 08:16:54;;;;;;;5.03;2.72;;;16.70;99.90;;;;;;5086274;28;20028;-66
2023/10/07 08:19:20;;;;;;;6.88;3.22;;;16.80;99.90;;;;;;5085920;28;20020;-68
2023/10/07 08:21:51;;;;;;;10.25;2.42;;;16.80;99.90;;;;;;5090684;28;20058;-67
2023/10/07 08:24:19;;;;;;;6.20;2.75;;;17.20;99.90;;;;;;5087061;28;20078;-65
2023/10/07 08:26:48;;;;;;;6.47;3.03;;;17.10;99.90;;;;;;5092428;28;20030;-67
2023/10/07 08:29:31;;;;;;;5.43;2.30;;;17.10;99.90;;;;;;5091201;28;20022;-67
2023/10/07 08:32:00;;;;;;;6.25;2.92;;;17.20;99.90;;;;;;5090413;28;20055;-67
2023/10/07 08:34:33;;;;;;;9.90;3.55;;;17.40;99.90;;;;;;5087121;28;20140;-69
2023/10/07 08:37:01;;;;;;;5.63;2.53;;;17.50;99.90;;;;;;5091308;28;20020;-65
2023/10/07 08:39:28;;;;;;;8.85;3.10;;;17.60;99.90;;;;;;5075861;28;20320;-66
2023/10/07 08:41:58;;;;;;;6.20;3.05;;;17.60;99.90;;;;;;5089275;28;20034;-67
2023/10/07 08:44:31;;;;;;;6.93;3.00;;;17.50;99.90;;;;;;5085586;28;20063;-67
2023/10/07 08:47:05;;;;;;;10.13;3.15;;;17.50;99.90;;;;;;5094140;28;20424;-64
2023/10/07 08:49:35;;;;;;;9.15;3.20;;;17.30;99.90;;;;;;5094641;28;20027;-65
2023/10/07 08:52:08;;;;;;;5.82;3.35;;;17.30;99.90;;;;;;5084421;28;20107;-66
2023/10/07 08:54:44;;;;;;;10.57;2.83;;;17.40;99.90;;;;;;5092832;28;20105;-67
2023/10/07 08:57:22;;;;;;;7.00;2.67;;;17.60;99.90;;;;;;5099809;28;20054;-66
2023/10/07 08:59:56;;;;;;;7.55;2.10;;;17.60;99.90;;;;;;5080243;28;20177;-66
2023/10/07 09:02:27;;;;;;;11.82;2.80;;;17.70;99.90;;;;;;5090407;28;20084;-65
2023/10/07 09:05:09;;;;;;;5.88;2.58;;;18.00;99.90;;;;;;5088253;28;21461;-65
2023/10/07 09:07:36;;;;;;;6.90;2.60;;;18.00;99.90;;;;;;5086505;28;20051;-66
2023/10/07 09:10:07;;;;;;;6.68;2.40;;;18.20;99.90;;;;;;5083578;28;20021;-65
2023/10/07 09:12:39;;;;;;;11.15;2.70;;;18.30;99.90;;;;;;5059212;28;20036;-67
2023/10/07 09:15:12;;;;;;;5.72;2.67;;;18.30;99.90;;;;;;5090773;28;20020;-65
2023/10/07 09:17:41;;;;;;;6.57;2.30;;;18.30;99.90;;;;;;5091645;28;20020;-65
2023/10/07 09:20:13;;;;;;;8.07;2.70;;;18.40;99.90;;;;;;5087876;28;20436;-63
2023/10/07 09:22:45;;;;;;;6.28;2.30;;;18.30;99.90;;;;;;5092686;28;20056;-65
2023/10/07 09:25:17;;;;;;;6.53;2.38;;;18.20;99.90;;;;;;5088575;28;20060;-68
2023/10/07 09:27:54;;;;;;;5.55;2.78;;;18.10;99.90;;;;;;5088819;28;20024;-66
2023/10/07 09:30:35;;;;;;;6.20;2.38;;;18.10;99.90;;;;;;5088826;28;20020;-65
2023/10/07 09:33:06;;;;;;;5.15;2.65;;;18.20;99.90;;;;;;5098627;28;20030;-62
2023/10/07 09:35:32;;;;;;;3.47;2.28;;;18.30;99.90;;;;;;5091494;28;21372;-68
2023/10/07 09:38:00;;;;;;;6.63;2.38;;;18.30;99.90;;;;;;5094739;28;20051;-65
2023/10/07 09:43:19;;;;;;;6.53;2.50;;;18.20;99.90;;;;;;5096202;28;20039;-65
2023/10/07 09:45:52;;;;;;;3.97;2.08;;;18.30;99.90;;;;;;5086100;28;20080;-65
2023/10/07 09:48:33;;;;;;;4.55;2.20;;;18.60;99.90;;;;;;5088624;28;20106;-66
2023/10/07 09:50:59;;;;;;;9.52;2.90;;;18.90;99.90;;;;;;5094530;28;20035;-63
2023/10/07 09:53:43;;;;;;;7.70;2.90;;;19.10;99.90;;;;;;5083711;28;20416;-66
2023/10/07 09:56:23;;;;;;;6.03;2.40;;;19.30;99.90;;;;;;5095986;28;20114;-67
2023/10/07 09:59:15;;;;;;;4.90;2.10;;;19.50;99.90;;;;;;5087305;28;20036;-66
2023/10/07 10:01:46;;;;;;;10.48;2.63;;;19.70;99.90;;;;;;5091539;28;20710;-65
2023/10/07 10:04:32;;;;;;;7.43;2.63;;;19.70;99.90;;;;;;5088016;28;20028;-65
2023/10/07 10:07:25;;;;;;;6.20;2.28;;;19.90;99.90;;;;;;5087964;28;20026;-65
2023/10/07 10:10:06;;;;;;;6.13;2.08;;;19.90;99.90;;;;;;5051201;28;20044;-66
2023/10/07 10:12:49;;;;;;;4.40;2.13;;;20.00;99.90;;;;;;5092949;28;20158;-65
2023/10/07 10:17:55;;;;;;;7.35;2.40;;;19.90;99.90;;;;;;5082647;28;20016;-65
2023/10/07 10:20:21;;;;;;;;;;;19.90;99.90;;;;;;5085317;28;20032;-66
2023/10/07 10:22:57;;;;;;;5.68;2.65;;;19.90;99.90;;;;;;5091149;28;19908;-65
2023/10/07 10:25:39;;;;;;;7.45;2.67;;;19.90;99.90;;;;;;5086182;28;20539;-66
2023/10/07 10:28:10;;;;;;;5.32;2.28;;;19.90;99.90;;;;;;5090439;28;20199;-65
2023/10/07 10:30:53;;;;;;;8.43;2.75;;;20.10;99.90;;;;;;5085861;28;20051;-67
2023/10/07 10:33:21;;;;;;;5.63;2.33;;;19.90;99.90;;;;;;5083862;28;20059;-63
2023/10/07 10:35:57;;;;;;;5.43;2.90;;;19.70;99.90;;;;;;5091655;28;20027;-67
2023/10/07 10:38:37;;;;;;;4.20;1.98;;;19.70;99.90;;;;;;5084150;28;20112;-65
2023/10/07 10:41:04;;;;;;;4.93;2.15;;;19.70;99.90;;;;;;5084769;28;20481;-66
2023/10/07 10:43:31;;;;;;;5.75;2.30;;;19.90;99.90;;;;;;5068757;28;20481;-66
2023/10/07 10:46:07;;;;;;;6.43;2.65;;;19.90;99.90;;;;;;5065876;28;20535;-65
2023/10/07 10:48:38;;;;;;;5.07;2.38;;;19.90;99.90;;;;;;5088741;28;20028;-67
2023/10/07 10:51:05;;;;;;;5.30;2.05;;;20.00;99.90;;;;;;5084905;28;20023;-64
2023/10/07 10:53:33;;;;;;;5.82;2.75;;;20.10;99.90;;;;;;5084965;28;20020;-67
2023/10/07 10:56:00;;;;;;;10.43;2.53;;;20.20;99.90;;;;;;5089759;28;20016;-65
2023/10/07 10:58:26;;;;;;;4.30;1.92;;;20.20;99.90;;;;;;5085864;28;20193;-67
2023/10/07 11:00:54;;;;;;;6.45;2.45;;;20.40;99.90;;;;;;5084465;27;20039;-66
2023/10/07 11:03:23;;;;;;;4.78;2.30;;;20.50;99.90;;;;;;5088633;28;20444;-66
2023/10/07 11:05:53;;;;;;;7.82;2.65;;;20.40;99.90;;;;;;5086888;28;20040;-66
2023/10/07 11:08:23;;;;;;;4.97;2.13;;;20.30;99.90;;;;;;5087957;28;20060;-66
2023/10/07 11:10:52;;;;;;;6.70;2.45;;;20.20;99.90;;;;;;5086678;28;20020;-66
2023/10/07 11:13:17;;;;;;;5.82;2.28;;;20.20;99.90;;;;;;5088245;28;20432;-66
2023/10/07 11:16:10;;;;;;;3.75;2.08;;;20.10;99.90;;;;;;5093662;28;20035;-66
2023/10/07 11:18:38;;;;;;;6.60;2.90;;;20.30;99.90;;;;;;5090323;28;20104;-66
2023/10/07 11:21:09;;;;;;;3.92;1.70;;;20.40;99.90;;;;;;5085749;28;20028;-66
2023/10/07 11:23:49;;;;;;;4.53;2.03;;;20.40;99.90;;;;;;5087543;28;20036;-66
2023/10/07 11:26:17;;;;;;;7.53;2.10;;;20.50;99.90;;;;;;5092912;28;20020;-67
2023/10/07 11:28:43;;;;;;;5.35;2.20;;;20.50;99.90;;;;;;5075059;28;20269;-66
2023/10/07 11:31:09;;;;;;;5.90;2.35;;;20.70;99.90;;;;;;5090950;28;20032;-66
2023/10/07 11:33:34;;;;;;;6.88;2.67;;;20.70;99.90;;;;;;5093546;28;20403;-68
2023/10/07 11:36:03;;;;;;;7.35;1.88;;;20.80;99.90;;;;;;5092917;28;20077;-65
2023/10/07 11:38:29;;;;;;;5.07;1.90;;;20.70;99.90;;;;;;5090517;28;20016;-67
2023/10/07 11:40:55;;;;;;;5.38;2.20;;;20.90;99.90;;;;;;5090420;28;20489;-66
2023/10/07 11:43:22;;;;;;;4.80;2.53;;;20.70;99.90;;;;;;5090882;28;20062;-67
2023/10/07 11:45:48;;;;;;;5.22;2.15;;;20.80;99.90;;;;;;5096028;28;20039;-66
2023/10/07 11:48:17;;;;;;;4.25;1.88;;;20.80;99.90;;;;;;5098139;28;20488;-65
2023/10/07 11:50:46;;;;;;;6.07;2.50;;;21.00;99.90;;;;;;5092230;28;20024;-65
2023/10/07 11:53:12;;;;;;;4.18;1.80;;;21.10;99.90;;;;;;5084842;28;20020;-67
2023/10/07 11:55:38;;;;;;;6.47;1.88;;;21.10;99.90;;;;;;5093755;28;20047;-65
2023/10/07 11:58:07;;;;;;;6.30;2.10;;;21.10;99.90;;;;;;5095405;28;20016;-66
2023/10/07 12:00:36;;;;;;;7.93;1.95;;;21.10;99.90;;;;;;5079893;28;20111;-65
2023/10/07 12:03:07;;;;;;;5.13;2.33;;;21.20;99.90;;;;;;5089207;28;20107;-65
2023/10/07 12:05:37;;;;;;;3.85;1.85;;;21.20;99.90;;;;;;5091485;28;20024;-65
2023/10/07 12:08:03;;;;;;;5.97;1.80;;;21.20;99.90;;;;;;5091588;28;20063;-64
2023/10/07 12:10:33;;;;;;;3.83;1.50;;;21.20;99.90;;;;;;5097882;28;20074;-64
2023/10/07 12:13:03;;;;;;;4.72;2.03;;;21.20;99.90;;;;;;5084631;28;20026;-62
2023/10/07 12:15:29;;;;;;;5.10;1.98;;;21.20;99.90;;;;;;5091675;28;20473;-65
2023/10/07 12:17:55;;;;;;;6.13;1.90;;;21.10;99.90;;;;;;5090484;28;20063;-66
2023/10/07 12:20:21;;;;;;;4.13;1.80;;;21.10;99.90;;;;;;5092140;28;20032;-66
2023/10/07 12:22:47;;;;;;;7.03;2.13;;;21.10;99.90;;;;;;5092100;28;20068;-66
2023/10/07 12:25:18;;;;;;;6.30;2.10;;;21.10;99.90;;;;;;5091458;28;20456;-64
2023/10/07 12:27:47;;;;;;;3.80;1.70;;;21.20;99.90;;;;;;5097248;28;20028;-66
2023/10/07 12:30:17;;;;;;;4.47;1.90;;;21.30;99.90;;;;;;5088054;28;20436;-67
2023/10/07 12:32:43;;;;;;;7.43;2.17;;;21.40;99.90;;;;;;5086732;28;20427;-65
2023/10/07 12:35:10;;;;;;;3.65;1.70;;;21.40;99.90;;;;;;5087367;28;20567;-66
2023/10/07 12:37:46;;;;;;;7.43;2.35;;;21.40;99.90;;;;;;5091689;28;20034;-66
2023/10/07 12:40:14;;;;;;;3.53;1.58;;;21.40;99.90;;;;;;5090252;28;20020;-65
2023/10/07 12:42:41;;;;;;;5.63;2.05;;;21.40;99.90;;;;;;5082615;28;20028;-64
2023/10/07 12:45:09;;;;;;;3.78;1.80;;;21.40;99.90;;;;;;5083142;28;20029;-64
2023/10/07 12:47:34;;;;;;;5.47;1.83;;;21.50;99.90;;;;;;5097156;28;20040;-66
2023/10/07 12:50:20;;;;;;;2.67;1.38;;;21.40;99.90;;;;;;5087789;28;21016;-66
2023/10/07 12:52:53;;;;;;;2.15;1.20;;;21.50;99.90;;;;;;5080118;28;20425;-64
2023/10/07 12:55:18;;;;;;;14.10;1.70;;;21.40;99.90;;;;;;5095447;28;20015;-65
2023/10/07 12:57:44;;;;;;;8.73;1.83;;;21.50;99.90;;;;;;5096447;28;20543;-65
2023/10/07 13:00:28;;;;;;;4.40;1.85;;;21.50;99.90;;;;;;5080757;28;20048;-64
2023/10/07 13:02:54;;;;;;;3.60;1.40;;;21.50;99.90;;;;;;5093583;28;20028;-65
2023/10/07 13:05:20;;;;;;;4.15;1.35;;;21.40;99.90;;;;;;5093443;28;20762;-65
2023/10/07 13:07:49;;;;;;;3.58;1.50;;;21.30;99.90;;;;;;5073310;28;20035;-65
2023/10/07 13:10:17;;;;;;;3.25;1.42;;;21.20;99.90;;;;;;5083555;28;20039;-65
2023/10/07 13:12:43;;;;;;;4.63;1.60;;;21.10;99.90;;;;;;5055911;28;20524;-67
2023/10/07 13:15:15;;;;;;;5.55;1.58;;;21.10;99.90;;;;;;5092235;28;20028;-65
2023/10/07 13:17:46;;;;;;;4.18;1.40;;;21.10;99.90;;;;;;5074287;28;20058;-66
2023/10/07 13:20:23;;;;;;;3.25;1.20;;;21.20;99.90;;;;;;5088678;28;20028;-65
2023/10/07 13:22:57;;;;;;;3.60;1.52;;;21.20;99.90;;;;;;5070717;28;20535;-65
2023/10/07 13:25:26;;;;;;;3.65;1.38;;;21.30;99.90;;;;;;5093662;28;20020;-65
2023/10/07 13:27:55;;;;;;;5.22;1.25;;;21.30;99.90;;;;;;5093594;28;20601;-65
2023/10/07 13:30:24;;;;;;;3.30;1.48;;;21.30;99.90;;;;;;5089195;28;20100;-65
2023/10/07 13:32:52;;;;;;;3.50;1.50;;;21.30;99.90;;;;;;5072197;28;20046;-65